Lakewood, CO

8:44 AM MDT on May 05, 2015 (GMT -0600)
Erie Municipal Airport | | Change Station
CLOSE
Current Station
Airport
Location: Erie,
Elevation: 5128 ft
Nearby Weather Stations

Elev 5128 ft 40.01 °N, 105.05 °W | Updated 10 minutes ago

Overcast
Overcast
50 °F
Feels Like 50 °F
N
0
Wind Variable Wind from North

Today
High -- | Low -- °F
--% Chance of Precip.
Yesterday
High -- | Low -- °F
Precip. -- in
5:56 AM 7:58 PM
Full, 98% visible
Pressure 29.98 in
Visibility 2.0 miles
Clouds Overcast 300 ft
Dew Point 49 °F
Humidity 96%
Rainfall 0.00 in
Snow Depth Not available.
UV 1 out of 12
Pollen 3.10 out of 12
Air Quality Not available.
Flu Activity Sporadic
METAR KEIK 051434Z AUTO 00000KT 2SM BR OVC003 10/09 A2998 RMK AO2 T01000094

More Conditions Fewer Conditions

Pressure 29.98 in
Visibility 2.0 miles
Clouds Overcast 300 ft
Dew Point 49 °F
Humidity 96%
Rainfall 0.00 in
Snow Depth Not available.
UV 1 out of 12
Pollen 3.10 out of 12
Air Quality Not available.
Flu Activity Sporadic
METAR KEIK 051434Z AUTO 00000KT 2SM BR OVC003 10/09 A2998 RMK AO2 T01000094

More Conditions Fewer Conditions

Nowcast | as of 6:44 am MDT on May 5, 2015

Areas of fog will reduce visibilities to around one half mile this morning. A few spots will have visibilities down to one quarter mile or less. Most of the fog will occur in the foothills and in the I-25 corridor from the northern Denver suburbs to the Wyoming line...and also near the crest of the Palmer Divide near Monument. Areas of drizzle will also occur. Rain will increase late this morning and become heavier by afternoon. Morning drivers should be careful in areas of dense fog.

×

10-Day Weather Forecast

Almanac

Astronomy

May. 05, 2015 Rise Set
Actual Time
Civil Twilight
Nautical Twilight
Astronomical Twilight
Moon
Length of Visible Light
Length of Day
Tomorrow will be .
, % of the Moon is Illuminated

Today's Extremes

State Highs State Lows

Community

WunderPhotos

Upload Photos

1,818,910 photos uploaded!

WunderBlogs® & News

Nearby

Air Quality

  Air Quality AQ Index Pollutant
Not available.

Snow Depth

Station Depth Elevation

Earthquake Activity

City Distance Mag. Time & Date
Minimum magnitude displayed is 2.5.

Coastal Water Temperatures

Place Temperature

Stations

Nearby Weather Stations

Station Location Temp. Windchill Dew Point Humidity Wind Precip. Elev Updated Type